sensor_id;sensor_type;location;lat;lon;timestamp;P1;durP1;ratioP1;P2;durP2;ratioP2
17091;SDS011;8661;45.700;4.880;2022-09-01T00:01:04;5.57;;;3.70;;
17091;SDS011;8661;45.700;4.880;2022-09-01T00:03:32;3.97;;;3.57;;
17091;SDS011;8661;45.700;4.880;2022-09-01T00:06:00;3.80;;;3.30;;
17091;SDS011;8661;45.700;4.880;2022-09-01T00:08:29;4.13;;;3.73;;
17091;SDS011;8661;45.700;4.880;2022-09-01T00:10:56;3.70;;;3.20;;
17091;SDS011;8661;45.700;4.880;2022-09-01T00:13:23;5.93;;;3.53;;
17091;SDS011;8661;45.700;4.880;2022-09-01T00:15:50;4.67;;;3.10;;
17091;SDS011;8661;45.700;4.880;2022-09-01T00:18:17;4.97;;;3.33;;
17091;SDS011;8661;45.700;4.880;2022-09-01T00:20:44;4.70;;;3.20;;
17091;SDS011;8661;45.700;4.880;2022-09-01T00:23:10;8.60;;;3.70;;
17091;SDS011;8661;45.700;4.880;2022-09-01T00:25:39;4.07;;;3.63;;
17091;SDS011;8661;45.700;4.880;2022-09-01T00:28:05;4.07;;;3.20;;
17091;SDS011;8661;45.700;4.880;2022-09-01T00:30:32;4.30;;;3.23;;
17091;SDS011;8661;45.700;4.880;2022-09-01T00:33:00;5.00;;;3.23;;
17091;SDS011;8661;45.700;4.880;2022-09-01T00:35:30;5.43;;;3.23;;
17091;SDS011;8661;45.700;4.880;2022-09-01T00:37:57;5.30;;;3.50;;
17091;SDS011;8661;45.700;4.880;2022-09-01T00:40:24;5.83;;;3.57;;
17091;SDS011;8661;45.700;4.880;2022-09-01T00:42:52;5.20;;;3.93;;
17091;SDS011;8661;45.700;4.880;2022-09-01T00:45:19;5.70;;;3.77;;
17091;SDS011;8661;45.700;4.880;2022-09-01T00:47:46;5.03;;;3.53;;
17091;SDS011;8661;45.700;4.880;2022-09-01T00:50:14;5.67;;;3.80;;
17091;SDS011;8661;45.700;4.880;2022-09-01T00:52:43;4.63;;;3.87;;
17091;SDS011;8661;45.700;4.880;2022-09-01T00:55:13;7.10;;;3.37;;
17091;SDS011;8661;45.700;4.880;2022-09-01T00:57:46;5.90;;;3.60;;
17091;SDS011;8661;45.700;4.880;2022-09-01T01:00:16;5.20;;;4.03;;
17091;SDS011;8661;45.700;4.880;2022-09-01T01:02:45;5.23;;;4.17;;
17091;SDS011;8661;45.700;4.880;2022-09-01T01:05:14;8.43;;;4.20;;
17091;SDS011;8661;45.700;4.880;2022-09-01T01:07:41;5.20;;;4.00;;
17091;SDS011;8661;45.700;4.880;2022-09-01T01:10:12;7.10;;;4.93;;
17091;SDS011;8661;45.700;4.880;2022-09-01T01:12:40;7.17;;;5.03;;
17091;SDS011;8661;45.700;4.880;2022-09-01T01:15:08;8.10;;;4.70;;
17091;SDS011;8661;45.700;4.880;2022-09-01T01:17:37;8.90;;;5.20;;
17091;SDS011;8661;45.700;4.880;2022-09-01T01:20:05;10.50;;;4.80;;
17091;SDS011;8661;45.700;4.880;2022-09-01T01:22:54;8.47;;;5.60;;
17091;SDS011;8661;45.700;4.880;2022-09-01T01:25:33;8.10;;;5.10;;
17091;SDS011;8661;45.700;4.880;2022-09-01T01:28:06;9.77;;;5.43;;
17091;SDS011;8661;45.700;4.880;2022-09-01T01:30:44;6.53;;;4.80;;
17091;SDS011;8661;45.700;4.880;2022-09-01T01:33:15;5.70;;;5.10;;
17091;SDS011;8661;45.700;4.880;2022-09-01T01:35:42;7.67;;;5.10;;
17091;SDS011;8661;45.700;4.880;2022-09-01T01:38:09;7.93;;;5.13;;
17091;SDS011;8661;45.700;4.880;2022-09-01T01:40:37;6.53;;;5.00;;
17091;SDS011;8661;45.700;4.880;2022-09-01T01:43:05;15.47;;;5.70;;
17091;SDS011;8661;45.700;4.880;2022-09-01T01:45:32;7.23;;;5.50;;
17091;SDS011;8661;45.700;4.880;2022-09-01T01:48:00;8.97;;;5.03;;
17091;SDS011;8661;45.700;4.880;2022-09-01T01:50:32;11.57;;;5.23;;
17091;SDS011;8661;45.700;4.880;2022-09-01T01:53:02;9.03;;;5.73;;
17091;SDS011;8661;45.700;4.880;2022-09-01T01:55:31;8.53;;;5.87;;
17091;SDS011;8661;45.700;4.880;2022-09-01T01:57:59;7.77;;;5.67;;
17091;SDS011;8661;45.700;4.880;2022-09-01T02:00:29;9.13;;;5.67;;
17091;SDS011;8661;45.700;4.880;2022-09-01T02:02:58;8.20;;;5.33;;
17091;SDS011;8661;45.700;4.880;2022-09-01T02:05:27;8.30;;;6.40;;
17091;SDS011;8661;45.700;4.880;2022-09-01T02:07:56;11.87;;;8.93;;
17091;SDS011;8661;45.700;4.880;2022-09-01T02:10:29;12.53;;;7.57;;
17091;SDS011;8661;45.700;4.880;2022-09-01T02:12:58;10.07;;;7.20;;
17091;SDS011;8661;45.700;4.880;2022-09-01T02:15:28;14.80;;;10.50;;
17091;SDS011;8661;45.700;4.880;2022-09-01T02:17:57;16.07;;;10.70;;
17091;SDS011;8661;45.700;4.880;2022-09-01T02:20:24;14.00;;;10.87;;
17091;SDS011;8661;45.700;4.880;2022-09-01T02:22:53;17.23;;;12.10;;
17091;SDS011;8661;45.700;4.880;2022-09-01T02:25:20;15.87;;;10.93;;
17091;SDS011;8661;45.700;4.880;2022-09-01T02:27:48;18.70;;;15.33;;
17091;SDS011;8661;45.700;4.880;2022-09-01T02:30:21;21.90;;;15.67;;
17091;SDS011;8661;45.700;4.880;2022-09-01T02:32:50;17.37;;;10.33;;
17091;SDS011;8661;45.700;4.880;2022-09-01T02:35:17;13.10;;;9.07;;
17091;SDS011;8661;45.700;4.880;2022-09-01T02:37:44;11.03;;;8.20;;
17091;SDS011;8661;45.700;4.880;2022-09-01T02:40:13;10.20;;;7.53;;
17091;SDS011;8661;45.700;4.880;2022-09-01T02:42:40;10.43;;;6.77;;
17091;SDS011;8661;45.700;4.880;2022-09-01T02:45:07;11.03;;;8.07;;
17091;SDS011;8661;45.700;4.880;2022-09-01T02:47:41;15.10;;;8.43;;
17091;SDS011;8661;45.700;4.880;2022-09-01T02:50:10;11.83;;;8.80;;
17091;SDS011;8661;45.700;4.880;2022-09-01T02:52:41;16.53;;;9.77;;
17091;SDS011;8661;45.700;4.880;2022-09-01T02:55:09;17.53;;;9.23;;
17091;SDS011;8661;45.700;4.880;2022-09-01T02:57:36;14.17;;;8.47;;
17091;SDS011;8661;45.700;4.880;2022-09-01T03:00:04;12.50;;;8.60;;
17091;SDS011;8661;45.700;4.880;2022-09-01T03:02:46;14.60;;;9.80;;
17091;SDS011;8661;45.700;4.880;2022-09-01T03:05:15;14.60;;;9.17;;
17091;SDS011;8661;45.700;4.880;2022-09-01T03:07:52;11.50;;;8.00;;
17091;SDS011;8661;45.700;4.880;2022-09-01T03:10:23;11.50;;;7.53;;
17091;SDS011;8661;45.700;4.880;2022-09-01T03:12:56;12.30;;;8.20;;
17091;SDS011;8661;45.700;4.880;2022-09-01T03:15:24;11.53;;;7.63;;
17091;SDS011;8661;45.700;4.880;2022-09-01T03:17:53;7.60;;;6.00;;
17091;SDS011;8661;45.700;4.880;2022-09-01T03:20:25;5.80;;;4.87;;
17091;SDS011;8661;45.700;4.880;2022-09-01T03:22:53;8.47;;;4.50;;
17091;SDS011;8661;45.700;4.880;2022-09-01T03:25:22;5.43;;;3.70;;
17091;SDS011;8661;45.700;4.880;2022-09-01T03:27:50;8.70;;;3.53;;
17091;SDS011;8661;45.700;4.880;2022-09-01T03:30:18;5.03;;;3.50;;
17091;SDS011;8661;45.700;4.880;2022-09-01T03:32:45;3.47;;;3.17;;
17091;SDS011;8661;45.700;4.880;2022-09-01T03:35:14;6.30;;;3.67;;
17091;SDS011;8661;45.700;4.880;2022-09-01T03:37:41;5.60;;;2.90;;
17091;SDS011;8661;45.700;4.880;2022-09-01T03:40:10;3.30;;;3.00;;
17091;SDS011;8661;45.700;4.880;2022-09-01T03:42:40;5.43;;;2.90;;
17091;SDS011;8661;45.700;4.880;2022-09-01T03:45:08;4.03;;;2.90;;
17091;SDS011;8661;45.700;4.880;2022-09-01T03:47:37;3.33;;;2.67;;
17091;SDS011;8661;45.700;4.880;2022-09-01T03:50:05;3.10;;;2.80;;
17091;SDS011;8661;45.700;4.880;2022-09-01T03:52:39;2.83;;;2.50;;
17091;SDS011;8661;45.700;4.880;2022-09-01T03:55:06;4.80;;;2.93;;
17091;SDS011;8661;45.700;4.880;2022-09-01T03:57:33;3.97;;;2.93;;
17091;SDS011;8661;45.700;4.880;2022-09-01T04:00:07;3.40;;;2.57;;
17091;SDS011;8661;45.700;4.880;2022-09-01T04:02:47;5.03;;;3.00;;
17091;SDS011;8661;45.700;4.880;2022-09-01T04:05:15;4.37;;;3.10;;
17091;SDS011;8661;45.700;4.880;2022-09-01T04:07:44;2.77;;;2.57;;
17091;SDS011;8661;45.700;4.880;2022-09-01T04:10:12;5.93;;;3.00;;
17091;SDS011;8661;45.700;4.880;2022-09-01T04:12:39;3.30;;;2.60;;
17091;SDS011;8661;45.700;4.880;2022-09-01T04:15:06;5.80;;;3.30;;
17091;SDS011;8661;45.700;4.880;2022-09-01T04:17:34;3.73;;;3.00;;
17091;SDS011;8661;45.700;4.880;2022-09-01T04:20:18;2.97;;;2.50;;
17091;SDS011;8661;45.700;4.880;2022-09-01T04:22:48;6.50;;;3.10;;
17091;SDS011;8661;45.700;4.880;2022-09-01T04:25:17;5.47;;;3.00;;
17091;SDS011;8661;45.700;4.880;2022-09-01T04:27:50;3.63;;;3.10;;
17091;SDS011;8661;45.700;4.880;2022-09-01T04:30:19;4.30;;;3.33;;
17091;SDS011;8661;45.700;4.880;2022-09-01T04:32:48;5.87;;;3.07;;
17091;SDS011;8661;45.700;4.880;2022-09-01T04:35:16;4.07;;;2.90;;
17091;SDS011;8661;45.700;4.880;2022-09-01T04:37:44;4.87;;;3.37;;
17091;SDS011;8661;45.700;4.880;2022-09-01T04:40:13;4.23;;;3.20;;
17091;SDS011;8661;45.700;4.880;2022-09-01T04:42:41;5.77;;;3.67;;
17091;SDS011;8661;45.700;4.880;2022-09-01T04:45:09;3.90;;;3.27;;
17091;SDS011;8661;45.700;4.880;2022-09-01T04:47:37;3.37;;;2.87;;
17091;SDS011;8661;45.700;4.880;2022-09-01T04:50:06;4.47;;;3.13;;
17091;SDS011;8661;45.700;4.880;2022-09-01T04:52:38;5.00;;;3.10;;
17091;SDS011;8661;45.700;4.880;2022-09-01T04:55:06;4.10;;;3.30;;
17091;SDS011;8661;45.700;4.880;2022-09-01T04:57:42;4.27;;;3.23;;
17091;SDS011;8661;45.700;4.880;2022-09-01T05:00:12;4.33;;;3.30;;
17091;SDS011;8661;45.700;4.880;2022-09-01T05:02:46;5.23;;;3.37;;
17091;SDS011;8661;45.700;4.880;2022-09-01T05:05:16;3.57;;;3.27;;
17091;SDS011;8661;45.700;4.880;2022-09-01T05:07:44;4.57;;;3.60;;
17091;SDS011;8661;45.700;4.880;2022-09-01T05:10:15;5.47;;;3.27;;
17091;SDS011;8661;45.700;4.880;2022-09-01T05:12:44;4.37;;;3.10;;
17091;SDS011;8661;45.700;4.880;2022-09-01T05:15:12;4.90;;;3.60;;
17091;SDS011;8661;45.700;4.880;2022-09-01T05:17:39;5.80;;;4.27;;
17091;SDS011;8661;45.700;4.880;2022-09-01T05:20:08;6.13;;;3.50;;
17091;SDS011;8661;45.700;4.880;2022-09-01T05:22:36;5.60;;;3.73;;
17091;SDS011;8661;45.700;4.880;2022-09-01T05:25:05;4.97;;;3.50;;
17091;SDS011;8661;45.700;4.880;2022-09-01T05:27:37;6.33;;;3.40;;
17091;SDS011;8661;45.700;4.880;2022-09-01T05:30:07;5.90;;;4.28;;
17091;SDS011;8661;45.700;4.880;2022-09-01T05:32:35;6.67;;;4.13;;
17091;SDS011;8661;45.700;4.880;2022-09-01T05:35:04;4.40;;;3.20;;
17091;SDS011;8661;45.700;4.880;2022-09-01T05:37:33;4.20;;;3.80;;
17091;SDS011;8661;45.700;4.880;2022-09-01T05:40:02;5.37;;;3.60;;
17091;SDS011;8661;45.700;4.880;2022-09-01T05:42:30;6.83;;;5.30;;
17091;SDS011;8661;45.700;4.880;2022-09-01T05:44:58;7.43;;;3.53;;
17091;SDS011;8661;45.700;4.880;2022-09-01T05:47:27;5.13;;;3.87;;
17091;SDS011;8661;45.700;4.880;2022-09-01T05:49:54;5.93;;;3.40;;
17091;SDS011;8661;45.700;4.880;2022-09-01T05:52:22;6.57;;;3.73;;
17091;SDS011;8661;45.700;4.880;2022-09-01T05:54:50;8.70;;;3.70;;
17091;SDS011;8661;45.700;4.880;2022-09-01T05:57:17;7.60;;;4.00;;
17091;SDS011;8661;45.700;4.880;2022-09-01T05:59:44;4.63;;;3.40;;
17091;SDS011;8661;45.700;4.880;2022-09-01T06:02:17;8.83;;;3.23;;
17091;SDS011;8661;45.700;4.880;2022-09-01T06:04:47;4.17;;;3.77;;
17091;SDS011;8661;45.700;4.880;2022-09-01T06:07:14;5.03;;;3.67;;
17091;SDS011;8661;45.700;4.880;2022-09-01T06:09:43;3.53;;;3.10;;
17091;SDS011;8661;45.700;4.880;2022-09-01T06:12:12;8.10;;;4.07;;
17091;SDS011;8661;45.700;4.880;2022-09-01T06:14:46;6.97;;;3.50;;
17091;SDS011;8661;45.700;4.880;2022-09-01T06:17:13;5.43;;;3.60;;
17091;SDS011;8661;45.700;4.880;2022-09-01T06:19:42;15.63;;;5.30;;
17091;SDS011;8661;45.700;4.880;2022-09-01T06:22:11;9.63;;;4.13;;
17091;SDS011;8661;45.700;4.880;2022-09-01T06:24:38;5.57;;;4.00;;
17091;SDS011;8661;45.700;4.880;2022-09-01T06:27:07;5.60;;;3.80;;
17091;SDS011;8661;45.700;4.880;2022-09-01T06:29:34;7.77;;;3.57;;
17091;SDS011;8661;45.700;4.880;2022-09-01T06:32:04;8.67;;;4.37;;
17091;SDS011;8661;45.700;4.880;2022-09-01T06:34:34;6.90;;;3.87;;
17091;SDS011;8661;45.700;4.880;2022-09-01T06:37:01;4.73;;;3.67;;
17091;SDS011;8661;45.700;4.880;2022-09-01T06:39:30;4.73;;;3.57;;
17091;SDS011;8661;45.700;4.880;2022-09-01T06:41:58;5.00;;;3.47;;
17091;SDS011;8661;45.700;4.880;2022-09-01T06:44:26;3.70;;;3.27;;
17091;SDS011;8661;45.700;4.880;2022-09-01T06:46:56;5.03;;;3.70;;
17091;SDS011;8661;45.700;4.880;2022-09-01T06:49:24;6.27;;;3.23;;
17091;SDS011;8661;45.700;4.880;2022-09-01T06:51:56;34.93;;;7.60;;
17091;SDS011;8661;45.700;4.880;2022-09-01T06:54:23;4.27;;;3.40;;
17091;SDS011;8661;45.700;4.880;2022-09-01T06:56:52;5.80;;;3.77;;
17091;SDS011;8661;45.700;4.880;2022-09-01T06:59:19;4.17;;;3.47;;
17091;SDS011;8661;45.700;4.880;2022-09-01T07:01:47;5.70;;;3.60;;
17091;SDS011;8661;45.700;4.880;2022-09-01T07:04:16;14.73;;;4.20;;
17091;SDS011;8661;45.700;4.880;2022-09-01T07:06:45;4.13;;;2.90;;
17091;SDS011;8661;45.700;4.880;2022-09-01T07:09:14;7.20;;;3.53;;
17091;SDS011;8661;45.700;4.880;2022-09-01T07:11:41;4.37;;;3.73;;
17091;SDS011;8661;45.700;4.880;2022-09-01T07:14:09;6.80;;;3.30;;
17091;SDS011;8661;45.700;4.880;2022-09-01T07:16:40;6.43;;;3.57;;
17091;SDS011;8661;45.700;4.880;2022-09-01T07:19:11;3.97;;;3.27;;
17091;SDS011;8661;45.700;4.880;2022-09-01T07:21:39;4.17;;;3.20;;
17091;SDS011;8661;45.700;4.880;2022-09-01T07:24:07;10.27;;;3.27;;
17091;SDS011;8661;45.700;4.880;2022-09-01T07:26:35;3.70;;;3.00;;
17091;SDS011;8661;45.700;4.880;2022-09-01T07:29:04;6.93;;;3.07;;
17091;SDS011;8661;45.700;4.880;2022-09-01T07:31:33;13.67;;;4.63;;
17091;SDS011;8661;45.700;4.880;2022-09-01T07:34:03;5.60;;;3.60;;
17091;SDS011;8661;45.700;4.880;2022-09-01T07:36:37;11.33;;;4.50;;
17091;SDS011;8661;45.700;4.880;2022-09-01T07:39:06;8.20;;;3.83;;
17091;SDS011;8661;45.700;4.880;2022-09-01T07:41:33;6.23;;;3.30;;
17091;SDS011;8661;45.700;4.880;2022-09-01T07:44:00;5.27;;;3.43;;
17091;SDS011;8661;45.700;4.880;2022-09-01T07:46:29;7.67;;;3.67;;
17091;SDS011;8661;45.700;4.880;2022-09-01T07:48:59;7.17;;;3.87;;
17091;SDS011;8661;45.700;4.880;2022-09-01T07:51:28;9.77;;;3.87;;
17091;SDS011;8661;45.700;4.880;2022-09-01T07:53:58;6.87;;;3.43;;
17091;SDS011;8661;45.700;4.880;2022-09-01T07:56:26;7.33;;;3.30;;
17091;SDS011;8661;45.700;4.880;2022-09-01T07:58:54;4.73;;;3.40;;
17091;SDS011;8661;45.700;4.880;2022-09-01T08:01:23;5.40;;;3.80;;
17091;SDS011;8661;45.700;4.880;2022-09-01T08:03:52;6.00;;;3.40;;
17091;SDS011;8661;45.700;4.880;2022-09-01T08:06:23;5.70;;;3.30;;
17091;SDS011;8661;45.700;4.880;2022-09-01T08:08:52;4.30;;;3.30;;
17091;SDS011;8661;45.700;4.880;2022-09-01T08:11:21;12.77;;;4.40;;
17091;SDS011;8661;45.700;4.880;2022-09-01T08:13:50;7.87;;;3.93;;
17091;SDS011;8661;45.700;4.880;2022-09-01T08:16:17;6.63;;;3.43;;
17091;SDS011;8661;45.700;4.880;2022-09-01T08:18:44;8.57;;;3.20;;
17091;SDS011;8661;45.700;4.880;2022-09-01T08:21:13;4.20;;;3.03;;
17091;SDS011;8661;45.700;4.880;2022-09-01T08:23:42;7.90;;;2.83;;
17091;SDS011;8661;45.700;4.880;2022-09-01T08:26:10;4.00;;;3.47;;
17091;SDS011;8661;45.700;4.880;2022-09-01T08:28:38;3.57;;;2.90;;
17091;SDS011;8661;45.700;4.880;2022-09-01T08:31:05;7.10;;;3.30;;
17091;SDS011;8661;45.700;4.880;2022-09-01T08:33:34;7.33;;;3.20;;
17091;SDS011;8661;45.700;4.880;2022-09-01T08:36:01;5.50;;;3.07;;
17091;SDS011;8661;45.700;4.880;2022-09-01T08:38:29;4.53;;;3.30;;
17091;SDS011;8661;45.700;4.880;2022-09-01T08:40:58;3.97;;;2.80;;
17091;SDS011;8661;45.700;4.880;2022-09-01T08:43:33;4.47;;;2.93;;
17091;SDS011;8661;45.700;4.880;2022-09-01T08:46:11;4.10;;;3.57;;
17091;SDS011;8661;45.700;4.880;2022-09-01T08:48:45;7.33;;;3.90;;
17091;SDS011;8661;45.700;4.880;2022-09-01T08:51:17;4.00;;;2.70;;
17091;SDS011;8661;45.700;4.880;2022-09-01T08:53:51;4.87;;;3.40;;
17091;SDS011;8661;45.700;4.880;2022-09-01T08:56:26;8.93;;;3.37;;
17091;SDS011;8661;45.700;4.880;2022-09-01T08:58:54;6.83;;;2.90;;
17091;SDS011;8661;45.700;4.880;2022-09-01T09:01:22;4.93;;;3.20;;
17091;SDS011;8661;45.700;4.880;2022-09-01T09:04:02;14.93;;;4.97;;
17091;SDS011;8661;45.700;4.880;2022-09-01T09:06:40;19.30;;;4.43;;
17091;SDS011;8661;45.700;4.880;2022-09-01T09:09:19;8.07;;;3.50;;
17091;SDS011;8661;45.700;4.880;2022-09-01T09:11:59;4.67;;;3.20;;
17091;SDS011;8661;45.700;4.880;2022-09-01T09:14:41;8.50;;;3.23;;
17091;SDS011;8661;45.700;4.880;2022-09-01T09:17:14;5.57;;;3.23;;
17091;SDS011;8661;45.700;4.880;2022-09-01T09:19:45;6.37;;;3.83;;
17091;SDS011;8661;45.700;4.880;2022-09-01T09:22:12;5.80;;;3.03;;
17091;SDS011;8661;45.700;4.880;2022-09-01T09:24:43;7.57;;;3.10;;
17091;SDS011;8661;45.700;4.880;2022-09-01T09:27:25;4.40;;;3.43;;
17091;SDS011;8661;45.700;4.880;2022-09-01T09:29:54;5.17;;;3.10;;
17091;SDS011;8661;45.700;4.880;2022-09-01T09:32:24;7.17;;;3.07;;
17091;SDS011;8661;45.700;4.880;2022-09-01T09:35:16;7.27;;;3.30;;
17091;SDS011;8661;45.700;4.880;2022-09-01T09:37:48;3.83;;;3.07;;
17091;SDS011;8661;45.700;4.880;2022-09-01T09:40:16;5.33;;;2.83;;
17091;SDS011;8661;45.700;4.880;2022-09-01T09:43:00;5.47;;;3.00;;
17091;SDS011;8661;45.700;4.880;2022-09-01T09:45:30;3.57;;;2.93;;
17091;SDS011;8661;45.700;4.880;2022-09-01T09:47:59;3.47;;;3.10;;
17091;SDS011;8661;45.700;4.880;2022-09-01T09:50:31;4.53;;;3.10;;
17091;SDS011;8661;45.700;4.880;2022-09-01T09:53:10;4.47;;;2.97;;
17091;SDS011;8661;45.700;4.880;2022-09-01T09:55:49;8.45;;;3.67;;
17091;SDS011;8661;45.700;4.880;2022-09-01T09:58:25;5.70;;;3.13;;
17091;SDS011;8661;45.700;4.880;2022-09-01T10:00:58;4.63;;;2.88;;
17091;SDS011;8661;45.700;4.880;2022-09-01T10:03:37;4.00;;;2.90;;
17091;SDS011;8661;45.700;4.880;2022-09-01T10:06:11;4.60;;;3.10;;
17091;SDS011;8661;45.700;4.880;2022-09-01T10:08:42;4.25;;;2.50;;
17091;SDS011;8661;45.700;4.880;2022-09-01T10:11:23;3.53;;;3.03;;
17091;SDS011;8661;45.700;4.880;2022-09-01T10:13:54;6.57;;;2.80;;
17091;SDS011;8661;45.700;4.880;2022-09-01T10:16:25;3.60;;;2.33;;
17091;SDS011;8661;45.700;4.880;2022-09-01T10:18:55;7.00;;;2.67;;
17091;SDS011;8661;45.700;4.880;2022-09-01T10:21:30;2.83;;;2.10;;
17091;SDS011;8661;45.700;4.880;2022-09-01T10:23:59;3.65;;;2.53;;
17091;SDS011;8661;45.700;4.880;2022-09-01T10:26:31;2.20;;;1.90;;
17091;SDS011;8661;45.700;4.880;2022-09-01T10:29:06;2.85;;;2.30;;
17091;SDS011;8661;45.700;4.880;2022-09-01T10:31:38;4.78;;;2.13;;
17091;SDS011;8661;45.700;4.880;2022-09-01T10:34:06;3.60;;;2.33;;
17091;SDS011;8661;45.700;4.880;2022-09-01T10:36:38;2.65;;;2.40;;
17091;SDS011;8661;45.700;4.880;2022-09-01T10:39:09;1.85;;;1.70;;
17091;SDS011;8661;45.700;4.880;2022-09-01T10:41:44;2.22;;;2.00;;
17091;SDS011;8661;45.700;4.880;2022-09-01T10:44:25;2.67;;;2.17;;
17091;SDS011;8661;45.700;4.880;2022-09-01T10:46:59;2.53;;;2.33;;
17091;SDS011;8661;45.700;4.880;2022-09-01T10:55:40;3.55;;;1.95;;
17091;SDS011;8661;45.700;4.880;2022-09-01T11:01:09;3.60;;;2.30;;
17091;SDS011;8661;45.700;4.880;2022-09-01T11:09:21;3.25;;;2.10;;
17091;SDS011;8661;45.700;4.880;2022-09-01T11:11:54;2.60;;;2.30;;
17091;SDS011;8661;45.700;4.880;2022-09-01T11:14:32;2.13;;;1.92;;
17091;SDS011;8661;45.700;4.880;2022-09-01T11:17:13;3.25;;;1.70;;
17091;SDS011;8661;45.700;4.880;2022-09-01T11:19:44;3.97;;;1.80;;
17091;SDS011;8661;45.700;4.880;2022-09-01T11:22:21;2.65;;;2.30;;
17091;SDS011;8661;45.700;4.880;2022-09-01T11:27:55;1.83;;;1.63;;
17091;SDS011;8661;45.700;4.880;2022-09-01T11:30:31;3.38;;;2.00;;
17091;SDS011;8661;45.700;4.880;2022-09-01T11:33:07;2.65;;;2.00;;
17091;SDS011;8661;45.700;4.880;2022-09-01T11:35:44;4.90;;;1.80;;
17091;SDS011;8661;45.700;4.880;2022-09-01T11:38:22;2.85;;;1.77;;
17091;SDS011;8661;45.700;4.880;2022-09-01T11:40:53;2.20;;;2.00;;
17091;SDS011;8661;45.700;4.880;2022-09-01T11:43:21;3.13;;;1.75;;
17091;SDS011;8661;45.700;4.880;2022-09-01T11:45:54;1.48;;;1.38;;
17091;SDS011;8661;45.700;4.880;2022-09-01T11:48:32;1.70;;;1.60;;
17091;SDS011;8661;45.700;4.880;2022-09-01T11:51:00;2.42;;;1.40;;
17091;SDS011;8661;45.700;4.880;2022-09-01T11:53:29;5.68;;;1.60;;
17091;SDS011;8661;45.700;4.880;2022-09-01T11:56:10;1.45;;;1.35;;
17091;SDS011;8661;45.700;4.880;2022-09-01T11:58:39;1.98;;;1.55;;
17091;SDS011;8661;45.700;4.880;2022-09-01T12:01:11;1.40;;;1.30;;
17091;SDS011;8661;45.700;4.880;2022-09-01T12:03:41;1.75;;;1.63;;
17091;SDS011;8661;45.700;4.880;2022-09-01T12:06:09;2.08;;;1.55;;
17091;SDS011;8661;45.700;4.880;2022-09-01T12:08:38;3.28;;;1.98;;
17091;SDS011;8661;45.700;4.880;2022-09-01T12:11:08;3.17;;;1.45;;
17091;SDS011;8661;45.700;4.880;2022-09-01T12:13:37;3.38;;;1.80;;
17091;SDS011;8661;45.700;4.880;2022-09-01T12:16:06;2.45;;;2.00;;
17091;SDS011;8661;45.700;4.880;2022-09-01T12:18:35;2.75;;;1.75;;
17091;SDS011;8661;45.700;4.880;2022-09-01T12:21:06;2.55;;;1.52;;
17091;SDS011;8661;45.700;4.880;2022-09-01T12:23:34;2.72;;;1.90;;
17091;SDS011;8661;45.700;4.880;2022-09-01T12:26:05;5.43;;;2.00;;
17091;SDS011;8661;45.700;4.880;2022-09-01T12:28:35;4.78;;;1.90;;
17091;SDS011;8661;45.700;4.880;2022-09-01T12:31:04;2.33;;;1.95;;
17091;SDS011;8661;45.700;4.880;2022-09-01T12:33:33;20.17;;;3.63;;
17091;SDS011;8661;45.700;4.880;2022-09-01T12:36:17;4.03;;;1.88;;
17091;SDS011;8661;45.700;4.880;2022-09-01T12:38:46;2.25;;;2.00;;
17091;SDS011;8661;45.700;4.880;2022-09-01T12:41:24;3.95;;;2.08;;
17091;SDS011;8661;45.700;4.880;2022-09-01T12:43:56;3.17;;;1.92;;
17091;SDS011;8661;45.700;4.880;2022-09-01T12:46:44;4.25;;;1.88;;
17091;SDS011;8661;45.700;4.880;2022-09-01T12:49:15;2.30;;;2.10;;
17091;SDS011;8661;45.700;4.880;2022-09-01T12:51:44;6.85;;;2.30;;
17091;SDS011;8661;45.700;4.880;2022-09-01T12:54:12;5.13;;;1.65;;
17091;SDS011;8661;45.700;4.880;2022-09-01T12:56:45;2.00;;;1.70;;
17091;SDS011;8661;45.700;4.880;2022-09-01T12:59:19;2.35;;;2.00;;
17091;SDS011;8661;45.700;4.880;2022-09-01T13:01:49;3.42;;;1.80;;
17091;SDS011;8661;45.700;4.880;2022-09-01T13:04:24;4.03;;;2.03;;
17091;SDS011;8661;45.700;4.880;2022-09-01T13:06:55;2.40;;;1.60;;
17091;SDS011;8661;45.700;4.880;2022-09-01T13:09:26;1.80;;;1.70;;
17091;SDS011;8661;45.700;4.880;2022-09-01T13:12:00;3.00;;;1.60;;
17091;SDS011;8661;45.700;4.880;2022-09-01T13:14:35;2.38;;;1.83;;
17091;SDS011;8661;45.700;4.880;2022-09-01T13:17:02;2.95;;;1.92;;
17091;SDS011;8661;45.700;4.880;2022-09-01T13:19:30;2.05;;;1.80;;
17091;SDS011;8661;45.700;4.880;2022-09-01T13:21:58;7.45;;;1.80;;
17091;SDS011;8661;45.700;4.880;2022-09-01T13:24:25;3.20;;;1.88;;
17091;SDS011;8661;45.700;4.880;2022-09-01T13:26:52;2.08;;;1.65;;
17091;SDS011;8661;45.700;4.880;2022-09-01T13:29:20;2.58;;;2.00;;
17091;SDS011;8661;45.700;4.880;2022-09-01T13:31:47;3.90;;;2.20;;
17091;SDS011;8661;45.700;4.880;2022-09-01T13:34:14;2.35;;;2.15;;
17091;SDS011;8661;45.700;4.880;2022-09-01T13:36:41;2.95;;;2.20;;
17091;SDS011;8661;45.700;4.880;2022-09-01T13:39:12;2.22;;;1.92;;
17091;SDS011;8661;45.700;4.880;2022-09-01T13:41:39;2.55;;;2.20;;
17091;SDS011;8661;45.700;4.880;2022-09-01T13:44:06;3.25;;;1.90;;
17091;SDS011;8661;45.700;4.880;2022-09-01T13:46:34;2.20;;;1.90;;
17091;SDS011;8661;45.700;4.880;2022-09-01T13:49:01;1.73;;;1.63;;
17091;SDS011;8661;45.700;4.880;2022-09-01T13:51:28;2.03;;;1.80;;
17091;SDS011;8661;45.700;4.880;2022-09-01T13:53:55;2.85;;;1.77;;
17091;SDS011;8661;45.700;4.880;2022-09-01T13:56:23;2.83;;;1.45;;
17091;SDS011;8661;45.700;4.880;2022-09-01T13:58:50;2.05;;;1.95;;
17091;SDS011;8661;45.700;4.880;2022-09-01T14:01:17;2.15;;;1.70;;
17091;SDS011;8661;45.700;4.880;2022-09-01T14:03:44;3.35;;;1.60;;
17091;SDS011;8661;45.700;4.880;2022-09-01T14:06:12;5.30;;;1.98;;
17091;SDS011;8661;45.700;4.880;2022-09-01T14:08:39;2.20;;;1.73;;
17091;SDS011;8661;45.700;4.880;2022-09-01T14:11:06;3.00;;;1.80;;
17091;SDS011;8661;45.700;4.880;2022-09-01T14:13:35;3.92;;;2.05;;
17091;SDS011;8661;45.700;4.880;2022-09-01T14:16:08;1.88;;;1.73;;
17091;SDS011;8661;45.700;4.880;2022-09-01T14:18:36;9.80;;;2.05;;
17091;SDS011;8661;45.700;4.880;2022-09-01T14:21:03;2.15;;;1.80;;
17091;SDS011;8661;45.700;4.880;2022-09-01T14:23:36;3.08;;;2.08;;
17091;SDS011;8661;45.700;4.880;2022-09-01T14:26:06;2.47;;;1.95;;
17091;SDS011;8661;45.700;4.880;2022-09-01T14:28:37;1.98;;;1.70;;
17091;SDS011;8661;45.700;4.880;2022-09-01T14:31:06;3.40;;;2.20;;
17091;SDS011;8661;45.700;4.880;2022-09-01T14:33:35;1.67;;;1.58;;
17091;SDS011;8661;45.700;4.880;2022-09-01T14:36:04;2.03;;;1.67;;
17091;SDS011;8661;45.700;4.880;2022-09-01T14:38:32;3.15;;;1.50;;
17091;SDS011;8661;45.700;4.880;2022-09-01T14:41:00;2.05;;;1.85;;
17091;SDS011;8661;45.700;4.880;2022-09-01T14:43:27;1.45;;;1.35;;
17091;SDS011;8661;45.700;4.880;2022-09-01T14:46:06;1.85;;;1.70;;
17091;SDS011;8661;45.700;4.880;2022-09-01T14:48:36;2.78;;;1.63;;
17091;SDS011;8661;45.700;4.880;2022-09-01T14:51:05;2.92;;;1.73;;
17091;SDS011;8661;45.700;4.880;2022-09-01T14:53:33;1.73;;;1.40;;
17091;SDS011;8661;45.700;4.880;2022-09-01T14:56:01;1.58;;;1.48;;
17091;SDS011;8661;45.700;4.880;2022-09-01T14:58:28;3.45;;;1.80;;
17091;SDS011;8661;45.700;4.880;2022-09-01T15:00:56;3.25;;;1.75;;
17091;SDS011;8661;45.700;4.880;2022-09-01T15:03:24;2.60;;;1.90;;
17091;SDS011;8661;45.700;4.880;2022-09-01T15:05:51;3.00;;;1.67;;
17091;SDS011;8661;45.700;4.880;2022-09-01T15:08:19;3.00;;;1.60;;
17091;SDS011;8661;45.700;4.880;2022-09-01T15:10:47;2.00;;;1.70;;
17091;SDS011;8661;45.700;4.880;2022-09-01T15:13:15;4.70;;;1.67;;
17091;SDS011;8661;45.700;4.880;2022-09-01T15:15:43;3.75;;;2.10;;
17091;SDS011;8661;45.700;4.880;2022-09-01T15:18:10;1.70;;;1.58;;
17091;SDS011;8661;45.700;4.880;2022-09-01T15:20:39;2.17;;;1.90;;
17091;SDS011;8661;45.700;4.880;2022-09-01T15:23:10;3.33;;;1.73;;
17091;SDS011;8661;45.700;4.880;2022-09-01T15:25:37;3.03;;;1.58;;
17091;SDS011;8661;45.700;4.880;2022-09-01T15:28:04;3.08;;;1.50;;
17091;SDS011;8661;45.700;4.880;2022-09-01T15:30:31;1.63;;;1.50;;
17091;SDS011;8661;45.700;4.880;2022-09-01T15:32:59;3.60;;;1.40;;
17091;SDS011;8661;45.700;4.880;2022-09-01T15:35:30;1.63;;;1.52;;